Time;durP1;ratioP1;P1;durP2;ratioP2;P2;SDS_P1;SDS_P2;PMS_P1;PMS_P2;Temp;Humidity;BMP_temperature;BMP_pressure;BME280_temperature;BME280_humidity;BME280_pressure;Samples;Min_cycle;Max_cycle;Signal;HPM_P1;HPM_P2
2021/10/01 00:00:56;;;;;;;1.77;0.60;;;15.10;82.60;;;;;;5083974;28;20172;-70
2021/10/01 00:03:22;;;;;;;15.05;1.77;;;15.10;82.50;;;;;;5094957;28;20119;-69
2021/10/01 00:05:47;;;;;;;3.13;0.95;;;15.10;82.50;;;;;;5093913;28;20032;-70
2021/10/01 00:08:13;;;;;;;0.85;0.65;;;15.10;82.40;;;;;;5083283;28;20537;-70
2021/10/01 00:10:39;;;;;;;1.48;1.25;;;15.10;82.50;;;;;;5088984;28;20031;-69
2021/10/01 00:13:04;;;;;;;3.33;1.17;;;15.10;82.40;;;;;;5078771;28;20586;-69
2021/10/01 00:15:31;;;;;;;2.42;1.30;;;15.10;82.30;;;;;;5077206;28;20024;-70
2021/10/01 00:17:58;;;;;;;6.15;1.17;;;15.10;82.30;;;;;;5079279;28;20086;-70
2021/10/01 00:20:24;;;;;;;3.72;1.63;;;15.10;83.00;;;;;;5082801;28;20039;-70
2021/10/01 00:22:50;;;;;;;0.77;0.57;;;15.10;82.40;;;;;;5081632;28;20063;-70
2021/10/01 00:25:15;;;;;;;4.78;1.17;;;15.10;82.30;;;;;;5087396;28;20056;-70
2021/10/01 00:27:41;;;;;;;6.05;1.02;;;15.00;82.30;;;;;;5077493;28;20032;-70
2021/10/01 00:30:07;;;;;;;3.15;1.25;;;14.90;82.50;;;;;;5087394;28;20468;-70
2021/10/01 00:32:33;;;;;;;5.68;1.15;;;14.90;82.70;;;;;;5078212;28;20120;-70
2021/10/01 00:35:00;;;;;;;4.53;1.38;;;14.90;82.80;;;;;;5079973;28;20099;-70
2021/10/01 00:37:26;;;;;;;2.47;1.20;;;14.80;82.60;;;;;;5087949;28;20115;-70
2021/10/01 00:39:53;;;;;;;5.28;1.08;;;14.80;82.70;;;;;;5089833;28;20960;-70
2021/10/01 00:42:19;;;;;;;3.78;1.40;;;14.80;83.00;;;;;;5078394;28;20111;-70
2021/10/01 00:44:45;;;;;;;3.00;1.27;;;14.80;83.20;;;;;;5077420;28;20032;-70
2021/10/01 00:47:12;;;;;;;5.03;1.60;;;14.70;83.50;;;;;;5091950;28;20115;-70
2021/10/01 00:49:37;;;;;;;2.55;1.48;;;14.60;83.80;;;;;;5079209;28;20120;-70
2021/10/01 00:52:04;;;;;;;4.45;1.25;;;14.70;84.20;;;;;;5092645;28;20479;-70
2021/10/01 00:54:29;;;;;;;4.03;1.05;;;14.70;84.50;;;;;;5082311;28;20035;-70
2021/10/01 00:56:58;;;;;;;2.38;0.98;;;14.60;84.70;;;;;;5076751;28;20028;-69
2021/10/01 00:59:23;;;;;;;7.40;1.02;;;14.70;84.90;;;;;;5084744;28;20652;-70
2021/10/01 01:01:52;;;;;;;2.13;0.68;;;14.70;85.00;;;;;;5090429;28;20120;-70
2021/10/01 01:04:18;;;;;;;2.75;0.90;;;14.60;85.00;;;;;;5093280;28;20020;-70
2021/10/01 01:06:59;;;;;;;1.25;0.77;;;14.70;85.10;;;;;;5083280;28;20372;-70
2021/10/01 01:09:29;;;;;;;0.70;0.70;;;14.80;85.20;;;;;;5091542;28;20566;-70
2021/10/01 01:12:10;;;;;;;6.15;1.73;;;14.70;85.20;;;;;;5084005;28;20028;-70
2021/10/01 01:14:52;;;;;;;0.68;0.68;;;14.70;85.20;;;;;;5090512;28;20036;-70
2021/10/01 01:17:22;;;;;;;2.03;1.02;;;14.70;85.10;;;;;;5075531;28;20021;-70
2021/10/01 01:20:30;;;;;;;2.97;0.65;;;14.80;85.00;;;;;;5083087;28;20068;-69
2021/10/01 01:23:31;;;;;;;0.63;0.63;;;14.80;85.00;;;;;;5071327;28;20399;-70
2021/10/01 01:26:17;;;;;;;2.83;0.95;;;14.80;85.00;;;;;;5088183;28;20086;-70
2021/10/01 01:29:07;;;;;;;1.15;1.00;;;14.80;85.00;;;;;;5086219;28;20471;-70
2021/10/01 01:31:51;;;;;;;0.30;0.30;;;14.80;85.10;;;;;;5092746;28;20032;-70
2021/10/01 01:34:37;;;;;;;3.53;0.93;;;14.80;85.00;;;;;;5078170;28;20104;-70
2021/10/01 01:37:19;;;;;;;2.08;1.10;;;14.90;85.00;;;;;;5082790;28;20028;-70
2021/10/01 01:39:48;;;;;;;0.80;0.60;;;14.90;84.90;;;;;;5090176;28;20060;-70
2021/10/01 01:42:15;;;;;;;1.35;0.60;;;14.80;84.80;;;;;;5082836;28;20372;-70
2021/10/01 01:44:44;;;;;;;1.10;0.75;;;14.90;84.80;;;;;;5087450;28;20052;-70
2021/10/01 01:47:10;;;;;;;1.38;0.95;;;14.90;84.60;;;;;;5085990;28;20028;-70
2021/10/01 01:49:36;;;;;;;1.83;1.08;;;14.90;84.40;;;;;;5075379;28;20090;-70
2021/10/01 01:52:04;;;;;;;1.13;0.80;;;14.90;84.30;;;;;;5075537;28;20414;-69
2021/10/01 01:54:31;;;;;;;3.70;1.23;;;14.90;84.10;;;;;;5073468;28;20028;-69
2021/10/01 01:56:59;;;;;;;4.30;1.20;;;14.90;84.00;;;;;;5089100;28;20023;-70
2021/10/01 01:59:26;;;;;;;8.18;1.13;;;15.00;83.80;;;;;;5092163;28;20043;-70
2021/10/01 02:01:56;;;;;;;4.38;1.23;;;15.00;83.90;;;;;;5078588;28;20459;-70
2021/10/01 02:04:25;;;;;;;0.45;0.45;;;15.00;83.70;;;;;;5087249;28;20479;-70
2021/10/01 02:06:53;;;;;;;4.13;0.90;;;15.00;83.60;;;;;;5082179;28;20040;-70
2021/10/01 02:09:20;;;;;;;5.55;1.58;;;15.00;83.40;;;;;;5081258;28;20017;-69
2021/10/01 02:11:48;;;;;;;1.25;1.02;;;15.00;83.20;;;;;;5074874;28;20020;-69
2021/10/01 02:14:27;;;;;;;6.57;1.60;;;15.10;83.20;;;;;;5075968;28;20107;-69
2021/10/01 02:16:56;;;;;;;2.20;0.98;;;15.10;83.00;;;;;;5072220;28;20048;-70
2021/10/01 02:19:24;;;;;;;1.25;0.90;;;15.00;83.10;;;;;;5097070;28;20039;-69
2021/10/01 02:21:51;;;;;;;1.50;0.82;;;15.00;83.10;;;;;;5084260;28;20067;-70
2021/10/01 02:24:18;;;;;;;1.70;1.00;;;15.10;83.10;;;;;;5088727;28;20478;-70
2021/10/01 02:26:56;;;;;;;2.92;1.10;;;15.10;83.10;;;;;;5087795;28;20035;-70
2021/10/01 02:29:34;;;;;;;1.83;1.15;;;15.10;83.00;;;;;;5086006;28;20396;-70
2021/10/01 02:32:19;;;;;;;1.98;0.82;;;15.10;83.00;;;;;;5073718;28;20040;-70
2021/10/01 02:34:46;;;;;;;3.08;1.08;;;15.10;83.00;;;;;;5075936;28;20090;-70
2021/10/01 02:37:17;;;;;;;6.18;0.88;;;15.10;82.90;;;;;;5095445;28;20016;-70
2021/10/01 02:39:46;;;;;;;3.22;0.95;;;15.10;82.90;;;;;;5074077;28;20064;-70
2021/10/01 02:42:13;;;;;;;2.45;1.10;;;15.10;82.90;;;;;;5087878;28;20471;-70
2021/10/01 02:44:40;;;;;;;2.70;1.85;;;15.10;82.80;;;;;;5079817;28;20028;-70
2021/10/01 02:47:08;;;;;;;1.80;0.93;;;15.10;82.80;;;;;;5086093;28;20025;-70
2021/10/01 02:49:36;;;;;;;3.63;1.45;;;15.10;82.70;;;;;;5081539;28;20483;-70
2021/10/01 02:52:14;;;;;;;4.53;1.40;;;15.10;82.80;;;;;;5101101;28;20026;-70
2021/10/01 02:55:01;;;;;;;3.50;1.20;;;15.10;82.60;;;;;;5079093;28;20512;-70
2021/10/01 02:57:37;;;;;;;5.30;1.23;;;15.10;82.60;;;;;;5086183;28;20032;-70
2021/10/01 03:00:05;;;;;;;3.13;1.20;;;15.10;82.60;;;;;;5090987;28;20093;-70
2021/10/01 03:02:32;;;;;;;4.47;1.30;;;15.00;82.70;;;;;;5077794;28;20030;-70
2021/10/01 03:05:00;;;;;;;2.15;0.95;;;15.10;82.80;;;;;;5088002;28;20490;-70
2021/10/01 03:07:27;;;;;;;3.22;1.10;;;15.10;82.80;;;;;;5083946;28;20020;-70
2021/10/01 03:09:54;;;;;;;3.08;0.98;;;15.10;82.80;;;;;;5080820;28;20028;-70
2021/10/01 03:12:22;;;;;;;3.22;1.02;;;15.10;82.80;;;;;;5090176;28;20020;-70
2021/10/01 03:14:51;;;;;;;4.80;0.68;;;15.10;82.80;;;;;;5080162;28;20056;-70
2021/10/01 03:17:17;;;;;;;4.72;1.15;;;15.10;82.70;;;;;;5085367;28;20472;-70
2021/10/01 03:19:43;;;;;;;0.85;0.65;;;15.10;82.60;;;;;;5090462;28;20074;-70
2021/10/01 03:22:10;;;;;;;1.33;1.08;;;15.10;82.60;;;;;;5088959;28;20029;-70
2021/10/01 03:24:35;;;;;;;6.63;1.15;;;15.10;82.40;;;;;;5079130;28;20111;-70
2021/10/01 03:27:01;;;;;;;0.68;0.55;;;15.10;82.50;;;;;;5090510;28;20161;-70
2021/10/01 03:29:31;;;;;;;4.25;1.27;;;15.20;82.60;;;;;;5077480;28;20423;-70
2021/10/01 03:31:57;;;;;;;3.85;0.88;;;15.10;82.50;;;;;;5084444;28;20020;-70
2021/10/01 03:34:23;;;;;;;4.50;1.50;;;15.00;82.60;;;;;;5082439;28;20530;-70
2021/10/01 03:36:55;;;;;;;2.28;0.82;;;15.00;82.80;;;;;;5077555;28;20035;-70
2021/10/01 03:39:22;;;;;;;1.45;0.93;;;15.00;83.00;;;;;;5081410;28;20045;-70
2021/10/01 03:41:50;;;;;;;2.08;0.73;;;15.00;83.20;;;;;;5089615;28;20076;-70
2021/10/01 03:44:15;;;;;;;0.52;0.52;;;14.90;83.20;;;;;;5092258;28;20067;-70
2021/10/01 03:46:41;;;;;;;1.20;0.73;;;15.00;83.30;;;;;;5091340;28;20051;-70
2021/10/01 03:49:07;;;;;;;5.53;1.60;;;14.90;83.40;;;;;;5084684;28;20103;-70
2021/10/01 03:51:32;;;;;;;1.63;0.90;;;15.00;83.40;;;;;;5071737;28;20031;-70
2021/10/01 03:53:59;;;;;;;5.25;1.25;;;15.00;83.40;;;;;;5073843;28;20070;-70
2021/10/01 03:56:24;;;;;;;0.57;0.57;;;15.00;83.20;;;;;;5072912;28;20115;-70
2021/10/01 03:58:50;;;;;;;2.50;1.40;;;15.00;83.20;;;;;;5073365;28;20126;-70
2021/10/01 04:01:17;;;;;;;6.50;1.27;;;15.00;83.30;;;;;;5073105;28;20023;-70
2021/10/01 04:03:43;;;;;;;2.20;1.02;;;15.10;83.20;;;;;;5076453;28;20044;-70
2021/10/01 04:06:09;;;;;;;1.10;0.77;;;15.10;83.00;;;;;;5082874;28;20025;-70
2021/10/01 04:08:35;;;;;;;2.75;1.17;;;15.10;83.10;;;;;;5073390;28;20044;-70
2021/10/01 04:11:01;;;;;;;1.60;0.88;;;15.00;82.90;;;;;;5076339;28;20025;-70
2021/10/01 04:13:27;;;;;;;0.73;0.70;;;15.10;83.10;;;;;;5075114;28;20476;-70
2021/10/01 04:15:53;;;;;;;2.38;1.20;;;15.10;83.20;;;;;;5074011;28;20070;-70
2021/10/01 04:18:22;;;;;;;0.80;0.68;;;15.10;83.20;;;;;;5079316;28;20361;-70
2021/10/01 04:20:49;;;;;;;0.75;0.63;;;15.00;83.20;;;;;;5084385;28;20026;-69
2021/10/01 04:23:15;;;;;;;9.98;1.58;;;15.00;83.30;;;;;;5089676;28;20111;-70
2021/10/01 04:26:01;;;;;;;1.95;1.38;;;15.10;83.30;;;;;;5079376;28;20041;-70
2021/10/01 04:28:26;;;;;;;1.08;0.50;;;15.10;83.30;;;;;;5075471;28;20501;-70
2021/10/01 04:30:58;;;;;;;1.42;0.50;;;15.10;83.30;;;;;;5073470;28;20034;-70
2021/10/01 04:33:25;;;;;;;7.95;1.40;;;15.00;83.30;;;;;;5077274;28;20543;-70
2021/10/01 04:35:54;;;;;;;2.22;1.00;;;15.10;83.40;;;;;;5074271;28;20032;-70
2021/10/01 04:38:21;;;;;;;8.40;1.20;;;15.00;83.30;;;;;;5078528;28;20047;-70
2021/10/01 04:40:48;;;;;;;2.53;1.00;;;15.10;83.40;;;;;;5078960;28;20115;-70
2021/10/01 04:43:14;;;;;;;3.10;0.95;;;15.10;83.40;;;;;;5093110;28;20066;-70
2021/10/01 04:45:59;;;;;;;2.90;1.50;;;15.00;83.50;;;;;;5092133;28;20429;-70
2021/10/01 04:48:25;;;;;;;1.20;0.70;;;15.00;83.50;;;;;;5090771;28;20024;-71
2021/10/01 04:50:51;;;;;;;4.15;0.80;;;15.10;83.50;;;;;;5079548;28;20452;-70
2021/10/01 04:53:17;;;;;;;6.03;1.50;;;15.10;83.60;;;;;;5077012;28;20103;-70
2021/10/01 04:55:46;;;;;;;5.78;1.20;;;15.00;83.50;;;;;;5086176;28;20047;-71
2021/10/01 04:58:12;;;;;;;3.45;1.13;;;15.10;84.20;;;;;;5077734;28;20110;-70
2021/10/01 05:01:01;;;;;;;1.35;0.75;;;15.10;83.60;;;;;;5078345;28;20047;-70
2021/10/01 05:03:56;;;;;;;3.45;1.10;;;15.00;83.60;;;;;;5090389;28;20084;-70
2021/10/01 05:06:36;;;;;;;8.05;1.38;;;15.00;83.60;;;;;;5086638;28;20044;-70
2021/10/01 05:09:22;;;;;;;2.65;0.98;;;15.00;83.60;;;;;;5078591;28;20063;-71
2021/10/01 05:12:26;;;;;;;3.83;1.70;;;15.00;83.60;;;;;;5034657;28;20161;-72
2021/10/01 05:15:11;;;;;;;4.65;1.05;;;15.00;83.50;;;;;;5027379;28;20064;-74
2021/10/01 05:18:14;;;;;;;4.30;1.40;;;15.00;83.60;;;;;;5053902;28;20028;-71
2021/10/01 05:21:02;;;;;;;1.95;1.08;;;15.00;83.60;;;;;;5082952;28;20038;-73
2021/10/01 05:23:51;;;;;;;2.47;0.82;;;15.00;83.60;;;;;;5079875;28;20060;-72
2021/10/01 05:26:16;;;;;;;3.53;1.30;;;15.00;83.60;;;;;;5082890;28;20048;-72
2021/10/01 05:28:42;;;;;;;1.67;1.05;;;15.00;83.40;;;;;;5081531;28;20074;-72
2021/10/01 05:31:08;;;;;;;7.75;1.20;;;15.00;83.50;;;;;;5076895;28;20024;-73
2021/10/01 05:33:33;;;;;;;4.75;1.23;;;15.00;83.40;;;;;;5075474;28;20036;-73
2021/10/01 05:35:59;;;;;;;7.90;1.40;;;15.00;83.30;;;;;;5075643;28;20055;-73
2021/10/01 05:38:25;;;;;;;3.92;1.38;;;15.00;83.20;;;;;;5079505;28;20430;-72
2021/10/01 05:40:54;;;;;;;16.30;1.10;;;15.00;83.00;;;;;;5073466;28;20032;-73
2021/10/01 05:43:24;;;;;;;6.05;1.20;;;15.00;83.00;;;;;;5077518;28;20028;-73
2021/10/01 05:45:53;;;;;;;1.50;0.70;;;15.00;83.00;;;;;;5080902;28;20020;-72
2021/10/01 05:48:41;;;;;;;5.00;1.23;;;15.00;83.10;;;;;;5086127;28;20036;-74
2021/10/01 05:51:27;;;;;;;1.95;0.93;;;15.00;82.90;;;;;;5073893;28;20051;-73
2021/10/01 05:54:13;;;;;;;4.60;1.10;;;15.10;82.90;;;;;;5078362;28;20063;-75
2021/10/01 05:56:58;;;;;;;2.42;0.98;;;15.00;82.50;;;;;;5078997;28;20070;-76
2021/10/01 05:59:46;;;;;;;2.25;0.80;;;15.00;82.50;;;;;;5078338;28;20040;-73
2021/10/01 06:02:16;;;;;;;7.35;1.40;;;15.00;82.50;;;;;;5074401;28;20055;-73
2021/10/01 06:04:42;;;;;;;12.18;1.05;;;15.00;82.40;;;;;;5078215;28;20356;-73
2021/10/01 06:07:10;;;;;;;1.00;0.70;;;15.00;82.50;;;;;;5078788;28;20039;-73
2021/10/01 06:09:35;;;;;;;3.53;1.13;;;15.10;82.50;;;;;;5076116;28;20056;-73
2021/10/01 06:12:01;;;;;;;3.90;0.98;;;15.00;82.40;;;;;;5075117;28;20060;-75
2021/10/01 06:14:27;;;;;;;4.53;1.30;;;15.00;83.00;;;;;;5077500;28;20459;-76
2021/10/01 06:16:53;;;;;;;1.35;0.65;;;15.10;82.30;;;;;;5078736;28;20025;-77
2021/10/01 06:19:20;;;;;;;5.93;1.42;;;15.10;82.30;;;;;;5079177;28;20024;-73
2021/10/01 06:21:47;;;;;;;2.13;0.68;;;15.10;82.10;;;;;;5085663;28;20035;-74
2021/10/01 06:24:13;;;;;;;0.98;0.85;;;15.10;82.10;;;;;;5082512;28;20067;-73
2021/10/01 06:26:39;;;;;;;10.98;0.80;;;15.10;82.10;;;;;;5091634;28;20039;-73
2021/10/01 06:29:04;;;;;;;11.50;1.23;;;15.10;82.10;;;;;;5091391;28;20019;-73
2021/10/01 06:31:30;;;;;;;2.40;1.33;;;15.10;82.10;;;;;;5084807;28;20024;-73
2021/10/01 06:33:56;;;;;;;2.28;1.00;;;15.10;82.10;;;;;;5089568;28;20031;-73
2021/10/01 06:36:23;;;;;;;3.50;1.23;;;15.10;82.10;;;;;;5082221;28;20073;-73
2021/10/01 06:38:52;;;;;;;6.80;1.42;;;15.10;82.10;;;;;;5088778;28;20052;-73
2021/10/01 06:41:19;;;;;;;4.70;1.17;;;15.10;82.10;;;;;;5086016;28;20036;-75
2021/10/01 06:43:45;;;;;;;1.95;0.85;;;15.10;82.00;;;;;;5075325;28;20089;-76
2021/10/01 06:46:24;;;;;;;3.33;1.10;;;15.10;82.00;;;;;;5079486;28;20080;-75
2021/10/01 06:49:10;;;;;;;1.75;0.82;;;15.10;82.00;;;;;;5074895;28;20037;-76
2021/10/01 08:21:14;;;;;;;1.75;0.88;;;15.20;83.20;;;;;;5079295;28;20024;-74
2021/10/01 08:23:42;;;;;;;2.00;1.08;;;15.20;83.30;;;;;;5079449;28;20522;-74
2021/10/01 08:26:07;;;;;;;1.00;0.75;;;15.20;83.30;;;;;;5083726;28;20043;-74
2021/10/01 08:28:33;;;;;;;2.17;0.85;;;15.20;83.40;;;;;;5083614;28;20028;-73
2021/10/01 08:31:16;;;;;;;2.28;1.02;;;15.20;83.50;;;;;;5090591;28;20039;-74
2021/10/01 08:33:42;;;;;;;5.70;1.00;;;15.20;83.50;;;;;;5087196;28;20051;-74
2021/10/01 08:36:07;;;;;;;1.45;0.75;;;15.20;83.40;;;;;;5093177;28;20052;-73
2021/10/01 08:38:34;;;;;;;2.85;0.60;;;15.20;83.50;;;;;;5087853;28;20594;-74
2021/10/01 08:41:00;;;;;;;0.80;0.80;;;15.30;83.50;;;;;;5087667;28;20115;-73
2021/10/01 08:43:26;;;;;;;4.72;0.90;;;15.30;83.40;;;;;;5084289;28;20089;-73
2021/10/01 08:45:52;;;;;;;5.20;0.95;;;15.30;83.40;;;;;;5080698;28;20048;-74
2021/10/01 08:48:20;;;;;;;2.80;1.23;;;15.40;83.60;;;;;;5081072;28;20029;-73
2021/10/01 08:50:46;;;;;;;1.85;1.08;;;15.40;83.60;;;;;;5092387;28;20070;-73
2021/10/01 08:53:11;;;;;;;0.68;0.68;;;15.40;83.60;;;;;;5084411;28;20044;-73
2021/10/01 08:55:38;;;;;;;0.85;0.45;;;15.40;83.60;;;;;;5083242;28;20035;-73
2021/10/01 08:58:04;;;;;;;1.00;0.98;;;15.50;83.70;;;;;;5095851;28;20025;-74
2021/10/01 09:00:31;;;;;;;2.20;1.05;;;15.40;83.80;;;;;;5087330;28;20131;-73
2021/10/01 09:02:56;;;;;;;5.57;1.17;;;15.50;83.90;;;;;;5084750;28;20454;-72
2021/10/01 09:05:22;;;;;;;6.65;1.50;;;15.50;84.00;;;;;;5083279;28;20099;-72
2021/10/01 09:07:48;;;;;;;0.73;0.73;;;15.60;84.00;;;;;;5086651;28;20376;-72
2021/10/01 09:10:15;;;;;;;0.60;0.60;;;15.60;84.10;;;;;;5076432;28;20081;-72
2021/10/01 09:12:53;;;;;;;1.73;0.80;;;15.60;84.10;;;;;;5083870;28;20055;-72
2021/10/01 09:15:19;;;;;;;2.10;0.52;;;15.70;84.20;;;;;;5084013;28;20531;-72
2021/10/01 09:17:56;;;;;;;3.40;1.27;;;15.70;84.20;;;;;;5093642;28;20356;-72
2021/10/01 09:20:25;;;;;;;2.65;0.85;;;15.70;84.00;;;;;;5090996;28;20108;-72
2021/10/01 09:23:18;;;;;;;1.20;0.77;;;15.80;84.00;;;;;;5086246;28;20035;-73
2021/10/01 09:25:44;;;;;;;4.18;1.38;;;15.80;84.10;;;;;;5081159;28;20032;-72
2021/10/01 09:28:13;;;;;;;2.50;0.77;;;15.80;84.10;;;;;;5082826;28;20028;-72
2021/10/01 09:30:48;;;;;;;4.13;0.75;;;15.90;84.20;;;;;;5082916;28;20036;-72
2021/10/01 09:33:16;;;;;;;3.15;1.30;;;15.90;84.30;;;;;;5081508;28;20540;-72
2021/10/01 09:35:42;;;;;;;1.80;0.95;;;15.90;84.20;;;;;;5088608;28;20031;-72
2021/10/01 09:38:12;;;;;;;3.90;0.88;;;15.90;84.30;;;;;;5084493;28;20134;-72
2021/10/01 09:40:39;;;;;;;3.17;1.25;;;16.00;84.50;;;;;;5079806;28;20044;-72
2021/10/01 09:43:06;;;;;;;5.70;0.80;;;16.00;84.40;;;;;;5093734;28;20032;-72
2021/10/01 09:45:32;;;;;;;0.55;0.55;;;16.00;84.30;;;;;;5081171;28;20050;-72
2021/10/01 09:48:06;;;;;;;2.53;1.00;;;16.00;84.20;;;;;;5074945;28;20488;-72
2021/10/01 09:50:32;;;;;;;;;;;16.10;84.30;;;;;;5086787;28;20119;-72
2021/10/01 09:53:02;;;;;;;1.95;0.77;;;16.10;84.40;;;;;;5076410;28;20007;-72
2021/10/01 09:55:39;;;;;;;0.77;0.43;;;16.10;84.30;;;;;;5097480;28;20472;-72
2021/10/01 09:58:09;;;;;;;3.15;0.60;;;16.10;84.50;;;;;;5090926;28;20051;-72
2021/10/01 10:00:39;;;;;;;2.60;0.98;;;16.20;84.40;;;;;;5079269;28;20500;-72
2021/10/01 10:03:07;;;;;;;3.15;0.82;;;16.20;84.50;;;;;;5090890;28;20016;-72
2021/10/01 10:05:54;;;;;;;1.48;0.85;;;16.30;84.30;;;;;;5085611;28;20032;-72
2021/10/01 10:08:26;;;;;;;7.10;0.77;;;16.30;84.40;;;;;;5087884;28;20020;-73
2021/10/01 10:10:54;;;;;;;4.55;0.90;;;16.40;84.20;;;;;;5088185;28;20364;-72
2021/10/01 10:13:40;;;;;;;2.67;0.60;;;16.40;84.00;;;;;;5087061;28;20032;-76
2021/10/01 10:16:17;;;;;;;2.22;0.98;;;16.40;84.20;;;;;;5079059;28;20028;-73
2021/10/01 10:18:44;;;;;;;0.85;0.75;;;16.40;84.10;;;;;;5088364;28;20109;-72
2021/10/01 10:21:10;;;;;;;2.85;0.82;;;16.40;84.30;;;;;;5079250;28;20032;-72
2021/10/01 10:23:36;;;;;;;1.88;0.82;;;16.50;84.20;;;;;;5085546;28;20066;-73
2021/10/01 10:26:02;;;;;;;0.85;0.70;;;16.60;84.40;;;;;;5090158;28;20082;-74
2021/10/01 10:28:28;;;;;;;1.20;0.60;;;16.60;84.30;;;;;;5083664;28;20035;-74
2021/10/01 10:30:55;;;;;;;1.27;0.60;;;16.60;84.30;;;;;;5080991;28;20020;-73
2021/10/01 10:33:39;;;;;;;4.70;1.25;;;16.60;84.30;;;;;;5076786;28;20490;-73
2021/10/01 10:36:35;;;;;;;2.47;0.75;;;16.70;84.50;;;;;;5074403;28;20534;-73
2021/10/01 10:39:13;;;;;;;2.00;0.88;;;16.70;84.40;;;;;;5072426;28;20037;-73
2021/10/01 10:41:42;;;;;;;1.75;0.60;;;16.70;84.50;;;;;;5073778;28;20032;-73
2021/10/01 10:44:10;;;;;;;1.55;0.80;;;16.70;84.50;;;;;;5075540;28;20024;-76
2021/10/01 10:46:35;;;;;;;1.50;0.60;;;16.80;84.50;;;;;;5074112;28;20533;-77
2021/10/01 10:49:23;;;;;;;3.10;0.90;;;16.80;84.50;;;;;;5092941;28;20028;-74
2021/10/01 10:52:01;;;;;;;0.75;0.63;;;16.90;84.60;;;;;;5077974;28;20024;-74
2021/10/01 10:54:30;;;;;;;1.23;0.60;;;16.90;84.40;;;;;;5092246;28;20391;-74
2021/10/01 10:57:18;;;;;;;7.57;1.48;;;17.00;84.40;;;;;;5088958;28;20031;-79
2021/10/01 10:59:44;;;;;;;0.80;0.75;;;17.00;84.20;;;;;;5084602;28;20036;-77
2021/10/01 11:02:33;;;;;;;0.60;0.60;;;17.00;84.30;;;;;;5085284;28;20040;-77
2021/10/01 11:05:26;;;;;;;0.82;0.75;;;17.00;84.30;;;;;;5085917;28;20082;-81
2021/10/01 11:08:02;;;;;;;2.30;1.23;;;17.10;84.60;;;;;;5084453;28;20039;-74
2021/10/01 11:10:37;;;;;;;1.13;1.02;;;17.10;84.70;;;;;;5082424;28;20150;-75
2021/10/01 11:13:24;;;;;;;4.18;1.20;;;17.10;84.80;;;;;;5076749;28;20024;-75
2021/10/01 11:16:13;;;;;;;1.85;0.77;;;17.10;85.00;;;;;;5075365;28;20028;-75
2021/10/01 11:18:42;;;;;;;1.63;0.70;;;17.10;85.10;;;;;;5073261;28;20048;-74
2021/10/01 11:21:26;;;;;;;1.85;0.70;;;17.20;85.30;;;;;;5086954;28;20118;-74
2021/10/01 11:24:15;;;;;;;1.73;0.95;;;17.20;85.30;;;;;;5074365;28;20087;-74
2021/10/01 11:26:48;;;;;;;0.30;0.30;;;17.30;86.00;;;;;;5066424;28;20076;-74
2021/10/01 11:29:20;;;;;;;;;;;17.30;85.40;;;;;;5086176;28;20039;-74
2021/10/01 11:31:45;;;;;;;3.38;0.57;;;17.40;85.40;;;;;;5086333;28;19912;-74
2021/10/01 11:34:11;;;;;;;5.95;0.82;;;17.40;85.30;;;;;;5073143;28;20074;-78
2021/10/01 11:36:39;;;;;;;2.42;0.90;;;17.40;85.30;;;;;;5073435;28;20032;-76
2021/10/01 11:39:15;;;;;;;0.75;0.75;;;17.50;85.30;;;;;;5072854;28;20158;-76
2021/10/01 11:41:48;;;;;;;1.77;0.65;;;17.50;85.40;;;;;;5080275;28;20030;-75
2021/10/01 11:44:15;;;;;;;5.15;0.98;;;17.60;85.40;;;;;;5075804;28;20434;-74
2021/10/01 11:46:45;;;;;;;2.60;0.77;;;17.50;85.40;;;;;;5081684;28;20484;-75
2021/10/01 11:49:18;;;;;;;1.50;0.45;;;17.60;85.40;;;;;;5087626;28;20498;-75
2021/10/01 11:52:02;;;;;;;1.65;0.75;;;17.60;85.30;;;;;;5081907;28;20475;-75
2021/10/01 11:54:29;;;;;;;1.77;0.70;;;17.70;85.20;;;;;;5088301;28;20032;-79
2021/10/01 11:57:04;;;;;;;1.00;0.50;;;17.70;85.20;;;;;;5085627;28;20111;-78
2021/10/01 11:59:54;;;;;;;9.75;1.08;;;17.70;85.00;;;;;;5083251;28;20040;-76
2021/10/01 12:02:44;;;;;;;2.13;0.68;;;17.70;84.90;;;;;;5080918;28;20020;-76
2021/10/01 12:05:21;;;;;;;0.65;0.47;;;17.80;85.00;;;;;;5078288;28;20391;-76
2021/10/01 12:07:54;;;;;;;0.88;0.60;;;17.80;85.10;;;;;;5084264;28;20444;-76
2021/10/01 12:10:22;;;;;;;4.68;0.90;;;17.80;85.00;;;;;;5084376;28;20024;-76
2021/10/01 12:13:11;;;;;;;1.23;0.85;;;17.80;84.80;;;;;;5082103;28;20093;-81
2021/10/01 12:15:48;;;;;;;3.00;0.70;;;17.80;84.60;;;;;;5083230;28;20032;-73
2021/10/01 12:18:48;;;;;;;2.33;1.25;;;17.80;84.50;;;;;;5089749;28;20047;-76
2021/10/01 12:21:19;;;;;;;2.33;0.82;;;17.90;84.60;;;;;;5087305;28;20028;-76
2021/10/01 12:23:48;;;;;;;3.10;0.95;;;17.90;84.40;;;;;;5092653;28;20504;-76
2021/10/01 12:26:31;;;;;;;2.72;0.73;;;17.90;84.20;;;;;;5093944;28;20027;-76
2021/10/01 12:29:07;;;;;;;0.77;0.77;;;17.80;84.30;;;;;;5096822;28;20040;-76
2021/10/01 12:32:04;;;;;;;0.90;0.50;;;17.90;84.50;;;;;;5096370;28;20028;-76
2021/10/01 12:34:35;;;;;;;2.90;0.93;;;17.90;84.60;;;;;;5080057;28;20032;-76
2021/10/01 12:37:05;;;;;;;0.60;0.47;;;17.90;84.40;;;;;;5090224;28;20032;-77
2021/10/01 12:39:33;;;;;;;7.75;0.90;;;17.90;84.50;;;;;;5078460;28;20178;-77
2021/10/01 12:42:05;;;;;;;5.78;0.90;;;17.90;84.60;;;;;;5086704;28;20107;-76
2021/10/01 12:44:39;;;;;;;6.55;1.05;;;17.90;84.00;;;;;;5083255;28;20034;-76
2021/10/01 12:47:21;;;;;;;1.88;0.93;;;17.90;84.20;;;;;;5081370;28;20025;-76
2021/10/01 12:50:05;;;;;;;1.98;1.33;;;18.00;84.60;;;;;;5078779;28;20021;-76
2021/10/01 12:52:31;;;;;;;2.88;1.13;;;17.90;84.80;;;;;;5079506;28;20032;-76
2021/10/01 12:55:00;;;;;;;2.22;0.50;;;17.90;85.00;;;;;;5080199;28;20032;-76
2021/10/01 12:57:28;;;;;;;0.60;0.60;;;17.90;85.30;;;;;;5074926;28;20017;-76
2021/10/01 13:00:03;;;;;;;1.13;0.90;;;17.90;85.50;;;;;;5074411;28;20450;-76
2021/10/01 13:02:45;;;;;;;4.82;1.08;;;17.90;85.70;;;;;;5079922;28;20391;-76
2021/10/01 13:05:36;;;;;;;1.02;0.88;;;17.90;85.60;;;;;;5080680;28;20031;-76
2021/10/01 13:08:02;;;;;;;1.45;0.77;;;17.80;85.60;;;;;;5077222;28;20028;-75
2021/10/01 13:10:50;;;;;;;6.53;1.92;;;17.70;85.90;;;;;;5074733;28;20032;-76
2021/10/01 13:13:28;;;;;;;1.02;0.55;;;17.70;86.30;;;;;;5083074;28;20129;-73
2021/10/01 13:16:01;;;;;;;3.45;1.25;;;17.70;86.60;;;;;;5088010;28;20043;-75
2021/10/01 13:18:27;;;;;;;;;;;17.70;86.80;;;;;;5079057;28;20037;-75
2021/10/01 13:21:02;;;;;;;6.18;1.38;;;17.70;86.60;;;;;;5076969;28;19969;-76
2021/10/01 13:23:28;;;;;;;1.58;0.98;;;17.70;86.50;;;;;;5089117;28;20033;-75
2021/10/01 13:25:57;;;;;;;1.80;1.17;;;17.60;86.50;;;;;;5089734;28;20024;-76
2021/10/01 13:28:25;;;;;;;2.08;1.15;;;17.60;86.70;;;;;;5084682;28;20115;-76
2021/10/01 13:30:52;;;;;;;0.80;0.80;;;17.60;86.70;;;;;;5087147;28;20086;-75
2021/10/01 13:33:19;;;;;;;1.70;1.02;;;17.60;86.80;;;;;;5092372;28;20032;-76
2021/10/01 13:35:48;;;;;;;3.10;1.27;;;17.60;86.60;;;;;;5091790;28;20031;-75
2021/10/01 13:38:13;;;;;;;2.28;0.90;;;17.60;86.60;;;;;;5085607;28;20059;-75
2021/10/01 13:40:41;;;;;;;0.90;0.85;;;17.60;86.60;;;;;;5077434;28;20032;-75
2021/10/01 13:43:09;;;;;;;2.08;1.20;;;17.50;86.50;;;;;;5088601;28;20071;-75
2021/10/01 13:45:35;;;;;;;2.20;0.98;;;17.50;86.70;;;;;;5083645;28;20024;-75
2021/10/01 13:48:01;;;;;;;5.78;2.10;;;17.60;86.70;;;;;;5085380;28;20036;-75
2021/10/01 13:50:27;;;;;;;2.95;1.25;;;17.50;86.70;;;;;;5089216;28;20044;-75
2021/10/01 13:52:52;;;;;;;3.40;1.90;;;17.50;86.70;;;;;;5085585;28;20506;-76
2021/10/01 13:55:19;;;;;;;3.17;1.80;;;17.50;86.80;;;;;;5084112;28;20037;-75
2021/10/01 13:57:48;;;;;;;6.13;2.03;;;17.60;86.80;;;;;;5087218;28;20032;-75
2021/10/01 14:00:18;;;;;;;2.97;1.13;;;17.60;86.80;;;;;;5087697;28;20475;-75
2021/10/01 14:02:45;;;;;;;5.78;1.73;;;17.60;86.60;;;;;;5087603;28;20028;-75
2021/10/01 14:05:15;;;;;;;5.68;2.00;;;17.60;86.70;;;;;;5079287;28;20386;-75
2021/10/01 14:07:41;;;;;;;6.15;1.83;;;17.60;86.60;;;;;;5092492;28;20560;-75
2021/10/01 14:10:09;;;;;;;6.82;1.85;;;17.60;87.40;;;;;;5085028;28;20039;-75
2021/10/01 14:12:35;;;;;;;6.20;1.40;;;17.60;86.80;;;;;;5094889;28;20157;-75
2021/10/01 14:15:01;;;;;;;2.15;1.40;;;17.70;86.70;;;;;;5079427;28;20071;-75
2021/10/01 14:17:26;;;;;;;7.05;1.83;;;17.70;86.60;;;;;;5076361;28;20032;-75
2021/10/01 14:19:52;;;;;;;7.38;1.67;;;17.70;86.70;;;;;;5085622;28;20037;-75
2021/10/01 14:22:19;;;;;;;2.72;1.60;;;17.80;86.80;;;;;;5089550;28;20523;-75
2021/10/01 14:24:45;;;;;;;6.97;2.05;;;17.80;86.80;;;;;;5075827;28;20086;-75
2021/10/01 14:27:11;;;;;;;3.33;1.67;;;17.80;86.40;;;;;;5086518;28;20036;-75
2021/10/01 14:29:37;;;;;;;7.95;1.98;;;17.70;86.10;;;;;;5091880;28;20124;-75
2021/10/01 14:32:03;;;;;;;5.97;2.20;;;17.80;86.30;;;;;;5093326;28;20024;-76
2021/10/01 14:34:28;;;;;;;6.50;1.58;;;17.70;86.00;;;;;;5088112;28;20078;-75
2021/10/01 14:36:54;;;;;;;2.67;1.05;;;17.70;85.90;;;;;;5090843;28;20394;-75
2021/10/01 14:39:23;;;;;;;1.55;1.05;;;17.70;85.80;;;;;;5092339;28;20047;-75